Time;durP1;ratioP1;P1;durP2;ratioP2;P2;SDS_P1;SDS_P2;PMS_P1;PMS_P2;Temp;Humidity;BMP_temperature;BMP_pressure;BME280_temperature;BME280_humidity;BME280_pressure;Samples;Min_cycle;Max_cycle;Signal;HPM_P1;HPM_P2
2022/05/23 00:00:35;;;;;;;6.50;3.27;;;15.30;99.90;;;;;;5073503;28;20841;-73
2022/05/23 00:03:02;;;;;;;3.70;2.37;;;15.30;99.90;;;;;;5073697;28;20484;-73
2022/05/23 00:05:28;;;;;;;2.30;2.10;;;15.40;99.90;;;;;;5072794;28;20487;-73
2022/05/23 00:07:59;;;;;;;2.70;2.30;;;15.50;99.90;;;;;;5073382;28;20469;-73
2022/05/23 00:10:26;;;;;;;3.13;2.50;;;15.50;99.90;;;;;;5072899;28;20498;-73
2022/05/23 00:12:52;;;;;;;3.03;2.10;;;15.60;99.90;;;;;;5072791;28;20478;-73
2022/05/23 00:15:21;;;;;;;2.33;2.13;;;15.60;99.90;;;;;;5072874;28;20458;-73
2022/05/23 00:17:48;;;;;;;2.40;2.20;;;15.60;99.90;;;;;;5072568;28;20814;-73
2022/05/23 00:20:19;;;;;;;3.30;2.37;;;15.60;99.90;;;;;;5072347;28;20984;-73
2022/05/23 00:22:46;;;;;;;3.20;2.30;;;15.60;99.90;;;;;;5072507;28;20499;-73
2022/05/23 00:25:13;;;;;;;4.17;2.37;;;15.60;99.90;;;;;;5072624;28;20860;-73
2022/05/23 00:27:42;;;;;;;3.20;2.33;;;15.60;99.90;;;;;;5072740;28;20451;-73
2022/05/23 00:30:12;;;;;;;3.10;2.40;;;15.50;99.90;;;;;;5072243;28;20856;-73
2022/05/23 00:35:25;;;;;;;4.13;2.60;;;15.40;99.90;;;;;;5072327;28;20968;-73
2022/05/23 00:37:55;;;;;;;2.97;2.70;;;15.30;99.90;;;;;;5072317;28;20462;-73
2022/05/23 00:40:38;;;;;;;3.80;2.60;;;15.20;99.90;;;;;;5072036;28;20879;-72
2022/05/23 00:43:15;;;;;;;2.63;2.43;;;15.00;99.90;;;;;;5072109;28;21009;-72
2022/05/23 00:45:44;;;;;;;3.27;2.70;;;15.00;99.90;;;;;;5071978;28;20631;-72
2022/05/23 00:48:13;;;;;;;4.40;2.53;;;14.90;99.90;;;;;;5071667;28;20458;-72
2022/05/23 00:50:42;;;;;;;2.43;2.23;;;14.80;99.90;;;;;;5071841;28;20470;-72
2022/05/23 00:53:11;;;;;;;3.77;2.70;;;14.70;99.90;;;;;;5071990;28;20485;-72
2022/05/23 00:55:42;;;;;;;6.07;3.37;;;14.70;99.90;;;;;;5071756;28;20455;-72
2022/05/23 00:58:13;;;;;;;3.73;2.50;;;14.70;99.90;;;;;;5071547;28;20459;-72
2022/05/23 01:00:40;;;;;;;3.40;2.80;;;14.60;99.90;;;;;;5071788;28;20458;-73
2022/05/23 01:03:12;;;;;;;2.70;2.50;;;14.50;99.90;;;;;;5071666;28;20478;-72
2022/05/23 01:05:40;;;;;;;2.57;2.37;;;14.50;99.90;;;;;;5071585;28;20569;-72
2022/05/23 01:08:08;;;;;;;2.93;2.60;;;14.40;99.90;;;;;;5071315;28;20458;-72
2022/05/23 01:10:38;;;;;;;4.17;2.60;;;14.40;99.90;;;;;;5071563;28;20470;-72
2022/05/23 01:13:05;;;;;;;2.90;2.70;;;14.40;99.90;;;;;;5071695;28;20489;-72
2022/05/23 01:15:33;;;;;;;4.03;2.47;;;14.40;99.90;;;;;;5071260;28;20458;-72
2022/05/23 01:18:00;;;;;;;2.80;2.60;;;14.40;99.90;;;;;;5071026;28;20508;-72
2022/05/23 01:20:28;;;;;;;3.60;2.37;;;14.30;99.90;;;;;;5071260;28;20461;-72
2022/05/23 01:23:08;;;;;;;2.60;2.20;;;14.30;99.90;;;;;;5071268;28;20540;-72
2022/05/23 01:25:39;;;;;;;4.40;2.50;;;14.30;99.90;;;;;;5071123;28;20902;-72
2022/05/23 01:28:07;;;;;;;3.00;2.30;;;14.20;99.90;;;;;;5070936;28;20458;-72
2022/05/23 01:30:35;;;;;;;3.47;2.10;;;14.30;99.90;;;;;;5071119;28;20466;-72
2022/05/23 01:33:03;;;;;;;4.30;2.93;;;14.20;99.90;;;;;;5071121;28;20856;-72
2022/05/23 01:35:30;;;;;;;3.03;2.40;;;14.20;99.90;;;;;;5070928;28;20451;-72
2022/05/23 01:37:57;;;;;;;3.30;2.40;;;14.20;99.90;;;;;;5071132;28;20466;-72
2022/05/23 01:40:24;;;;;;;2.87;2.30;;;14.10;99.90;;;;;;5071039;28;20465;-72
2022/05/23 01:42:53;;;;;;;3.70;2.50;;;14.10;99.90;;;;;;5070510;28;20490;-73
2022/05/23 01:45:24;;;;;;;2.70;2.50;;;14.10;99.90;;;;;;5070817;28;20490;-72
2022/05/23 01:47:51;;;;;;;2.67;2.43;;;14.00;99.90;;;;;;5070781;28;20466;-72
2022/05/23 01:50:18;;;;;;;4.93;2.50;;;14.00;99.90;;;;;;5070551;28;20781;-73
2022/05/23 01:52:45;;;;;;;5.03;2.30;;;13.90;99.90;;;;;;5070728;28;21012;-72
2022/05/23 01:55:12;;;;;;;3.67;2.70;;;13.90;99.90;;;;;;5070960;28;20458;-73
2022/05/23 01:57:38;;;;;;;3.23;2.80;;;13.90;99.90;;;;;;5070798;28;20487;-73
2022/05/23 02:02:54;;;;;;;2.70;2.50;;;13.90;99.90;;;;;;5070804;28;20457;-73
2022/05/23 02:05:21;;;;;;;3.43;2.90;;;13.90;99.90;;;;;;5070728;28;20486;-73
2022/05/23 02:07:48;;;;;;;3.43;2.97;;;13.90;99.90;;;;;;5070636;28;20473;-72
2022/05/23 02:10:15;;;;;;;4.43;2.40;;;13.90;99.90;;;;;;5070319;28;20972;-73
2022/05/23 02:12:42;;;;;;;3.33;2.80;;;13.90;99.90;;;;;;5070608;28;20853;-72
2022/05/23 02:15:11;;;;;;;3.97;2.73;;;13.80;99.90;;;;;;5070906;28;20461;-73
2022/05/23 02:17:38;;;;;;;4.30;2.60;;;13.80;99.90;;;;;;5070593;28;20458;-73
2022/05/23 02:20:07;;;;;;;2.83;2.33;;;13.90;99.90;;;;;;5070260;28;20465;-73
2022/05/23 02:22:34;;;;;;;4.23;2.70;;;13.80;99.90;;;;;;5070422;28;20479;-73
2022/05/23 02:25:01;;;;;;;3.40;2.40;;;13.80;99.90;;;;;;5070776;28;20569;-72
2022/05/23 02:27:29;;;;;;;2.50;2.30;;;13.70;99.90;;;;;;5070540;28;20512;-72
2022/05/23 02:29:56;;;;;;;3.97;2.37;;;13.70;99.90;;;;;;5070281;28;20462;-73
2022/05/23 02:32:24;;;;;;;4.13;2.50;;;13.70;99.90;;;;;;5070469;28;20482;-73
2022/05/23 02:34:50;;;;;;;4.60;2.90;;;13.70;99.90;;;;;;5070642;28;20485;-72
2022/05/23 02:37:17;;;;;;;3.03;2.77;;;13.70;99.90;;;;;;5070641;28;20545;-72
2022/05/23 02:39:44;;;;;;;3.80;2.63;;;13.60;99.90;;;;;;5069933;28;20466;-73
2022/05/23 02:42:11;;;;;;;4.27;2.47;;;13.60;99.90;;;;;;5070535;28;20847;-73
2022/05/23 02:44:37;;;;;;;2.60;2.40;;;13.60;99.90;;;;;;5070372;28;20489;-72
2022/05/23 02:47:05;;;;;;;6.53;3.00;;;13.60;99.90;;;;;;5070647;28;20485;-73
2022/05/23 02:49:33;;;;;;;2.80;2.60;;;13.60;99.90;;;;;;5069914;28;20462;-73
2022/05/23 02:52:00;;;;;;;3.47;2.63;;;13.60;99.90;;;;;;5070591;28;20482;-72
2022/05/23 02:54:26;;;;;;;2.90;2.70;;;13.60;99.90;;;;;;5070840;28;20876;-73
2022/05/23 02:56:53;;;;;;;5.20;2.57;;;13.50;99.90;;;;;;5074631;28;20481;-73
2022/05/23 02:59:20;;;;;;;2.93;2.73;;;13.60;99.90;;;;;;5074070;28;20458;-73
2022/05/23 03:04:33;;;;;;;4.73;2.70;;;13.60;99.90;;;;;;5074292;28;20457;-73
2022/05/23 03:06:59;;;;;;;2.83;2.60;;;13.60;99.90;;;;;;5074302;28;20470;-73
2022/05/23 03:09:27;;;;;;;3.43;2.83;;;13.60;99.90;;;;;;5073641;28;20458;-73
2022/05/23 03:11:54;;;;;;;3.27;2.50;;;13.60;99.90;;;;;;5073845;28;20490;-73
2022/05/23 03:14:21;;;;;;;5.73;2.90;;;13.60;99.90;;;;;;5074009;28;20462;-73
2022/05/23 03:16:47;;;;;;;2.90;2.63;;;13.70;99.90;;;;;;5073679;28;20469;-73
2022/05/23 03:19:14;;;;;;;2.80;2.60;;;13.70;99.90;;;;;;5073280;28;20458;-73
2022/05/23 03:27:10;;;;;;;2.90;2.63;;;13.70;99.90;;;;;;5073871;28;20446;-73
2022/05/23 03:29:37;;;;;;;2.50;2.30;;;13.70;99.90;;;;;;5072595;28;20458;-73
2022/05/23 03:32:05;;;;;;;2.83;2.40;;;13.70;99.90;;;;;;5064003;28;20846;-73
2022/05/23 03:34:31;;;;;;;3.67;2.57;;;13.70;99.90;;;;;;5067102;28;20462;-73
2022/05/23 03:36:59;;;;;;;2.67;2.43;;;13.70;99.90;;;;;;5056091;28;20450;-73
2022/05/23 03:39:26;;;;;;;3.10;2.80;;;13.70;99.90;;;;;;5060606;28;20455;-74
2022/05/23 03:41:53;;;;;;;3.13;2.90;;;13.70;99.90;;;;;;5172927;22;20493;-72
2022/05/23 03:44:20;;;;;;;3.17;2.87;;;13.60;99.90;;;;;;5071423;28;20835;-72
2022/05/23 03:46:47;;;;;;;5.13;3.33;;;13.70;99.90;;;;;;5071586;28;20493;-71
2022/05/23 03:49:14;;;;;;;2.50;2.30;;;13.70;99.90;;;;;;5071277;28;20454;-72
2022/05/23 03:51:41;;;;;;;4.00;2.90;;;13.70;99.90;;;;;;5070888;28;23077;-76
2022/05/23 03:54:09;;;;;;;2.57;2.37;;;13.80;99.90;;;;;;5071973;28;20455;-76
2022/05/23 03:56:36;;;;;;;2.20;2.10;;;13.90;99.90;;;;;;5070103;28;20462;-75
2022/05/23 03:59:03;;;;;;;2.47;2.27;;;14.00;99.90;;;;;;5072656;28;20466;-76
2022/05/23 04:01:31;;;;;;;2.53;2.33;;;14.20;99.90;;;;;;5072688;28;20507;-76
2022/05/23 04:03:58;;;;;;;2.40;2.20;;;14.40;99.90;;;;;;5072903;28;20454;-75
2022/05/23 04:06:25;;;;;;;3.40;2.13;;;14.50;99.90;;;;;;5070398;28;20486;-76
2022/05/23 04:08:51;;;;;;;2.93;2.40;;;14.70;99.90;;;;;;5069338;28;20987;-75
2022/05/23 04:11:20;;;;;;;2.50;2.30;;;14.80;99.90;;;;;;5071485;28;20509;-76
2022/05/23 04:13:47;;;;;;;2.43;2.23;;;15.00;99.90;;;;;;5068320;28;20985;-73
2022/05/23 04:16:14;;;;;;;4.43;2.30;;;15.10;99.90;;;;;;5071296;28;20896;-74
2022/05/23 04:18:41;;;;;;;3.10;2.50;;;15.20;99.90;;;;;;5070377;28;20470;-74
2022/05/23 04:21:07;;;;;;;2.17;1.97;;;15.20;99.90;;;;;;5071044;28;20461;-73
2022/05/23 04:23:34;;;;;;;3.97;2.40;;;15.30;99.90;;;;;;5071384;28;20482;-73
2022/05/23 04:26:03;;;;;;;2.90;2.13;;;15.40;99.90;;;;;;5071495;28;20486;-72
2022/05/23 04:28:31;;;;;;;2.70;2.30;;;15.50;99.90;;;;;;5070422;28;20974;-73
2022/05/23 04:30:58;;;;;;;2.63;2.33;;;15.50;99.90;;;;;;5071934;28;20458;-72
2022/05/23 04:36:09;;;;;;;2.73;2.40;;;15.60;99.90;;;;;;5072340;28;20435;-73
2022/05/23 04:38:36;;;;;;;3.97;2.07;;;15.60;99.90;;;;;;5071425;28;20467;-72
2022/05/23 04:41:06;;;;;;;3.53;2.30;;;15.60;99.90;;;;;;5072220;28;20860;-72
2022/05/23 04:43:34;;;;;;;3.93;2.67;;;15.70;99.90;;;;;;5071744;28;20497;-73
2022/05/23 04:46:01;;;;;;;4.73;2.77;;;15.70;99.90;;;;;;5072131;28;20850;-72
2022/05/23 04:51:12;;;;;;;3.93;2.70;;;15.60;99.90;;;;;;5072088;28;20433;-72
2022/05/23 04:53:39;;;;;;;3.97;3.63;;;15.50;99.90;;;;;;5072338;28;20842;-72
2022/05/23 04:56:06;;;;;;;4.40;2.90;;;15.40;99.90;;;;;;5072099;28;21030;-73
2022/05/23 04:58:34;;;;;;;3.30;2.83;;;15.30;99.90;;;;;;5071438;28;20459;-73
2022/05/23 05:01:02;;;;;;;5.13;2.70;;;15.30;99.90;;;;;;5071876;28;20462;-73
2022/05/23 05:03:28;;;;;;;6.63;3.13;;;15.20;99.90;;;;;;5071349;28;21054;-73
2022/05/23 05:05:55;;;;;;;4.67;3.23;;;15.20;99.90;;;;;;5071471;28;20482;-73
2022/05/23 05:08:22;;;;;;;3.23;2.90;;;15.20;99.90;;;;;;5070985;28;20469;-72
2022/05/23 05:10:48;;;;;;;3.50;2.90;;;15.10;99.90;;;;;;5084547;22;20515;-92
2022/05/23 05:13:15;;;;;;;3.07;2.77;;;15.10;99.90;;;;;;5045265;28;20456;-91
2022/05/23 05:15:45;;;;;;;3.03;2.73;;;15.00;99.90;;;;;;5053633;28;20470;-93
2022/05/23 05:18:12;;;;;;;3.00;2.70;;;15.00;99.90;;;;;;5062410;22;20435;-72
2022/05/23 05:20:38;;;;;;;4.60;2.70;;;14.90;99.90;;;;;;5071526;28;20859;-73
2022/05/23 05:23:05;;;;;;;4.17;3.30;;;14.90;99.90;;;;;;5071370;28;20481;-73
2022/05/23 05:25:32;;;;;;;3.53;2.73;;;14.90;99.90;;;;;;5071229;28;20484;-73
2022/05/23 05:27:59;;;;;;;4.57;3.07;;;14.90;99.90;;;;;;5070632;28;20462;-72
2022/05/23 05:30:26;;;;;;;5.27;3.03;;;14.90;99.90;;;;;;5071204;28;20458;-74
2022/05/23 05:32:59;;;;;;;4.63;2.70;;;14.90;99.90;;;;;;5071195;28;20483;-72
2022/05/23 05:35:30;;;;;;;7.30;3.27;;;15.00;99.90;;;;;;5071191;28;20459;-72
2022/05/23 05:38:01;;;;;;;6.93;4.47;;;14.90;99.90;;;;;;5070996;28;20462;-72
2022/05/23 05:40:30;;;;;;;5.20;3.27;;;14.90;99.90;;;;;;5071171;28;20458;-72
2022/05/23 05:43:01;;;;;;;5.67;3.70;;;14.80;99.90;;;;;;5070782;28;20859;-72
2022/05/23 05:45:37;;;;;;;4.70;3.40;;;14.80;99.90;;;;;;5070875;28;20478;-72
2022/05/23 05:48:07;;;;;;;4.00;3.30;;;14.90;99.90;;;;;;5070325;28;20494;-72
2022/05/23 05:50:38;;;;;;;5.43;3.63;;;14.90;99.90;;;;;;5070998;28;20473;-72
2022/05/23 05:53:09;;;;;;;8.10;3.80;;;15.00;99.90;;;;;;5070729;28;20854;-72
2022/05/23 05:55:37;;;;;;;4.43;3.47;;;15.10;99.90;;;;;;5071097;28;20457;-72
2022/05/23 05:58:04;;;;;;;6.43;3.50;;;15.10;99.90;;;;;;5070184;28;20500;-72
2022/05/23 06:00:31;;;;;;;5.13;3.30;;;15.00;99.90;;;;;;5070988;28;20465;-72
2022/05/23 06:02:58;;;;;;;6.03;3.70;;;15.10;99.90;;;;;;5070763;28;20482;-72
2022/05/23 06:05:26;;;;;;;4.87;4.47;;;15.10;99.90;;;;;;5070800;28;20458;-72
2022/05/23 06:13:21;;;;;;;7.20;4.17;;;15.40;99.90;;;;;;5070808;28;20552;-72
2022/05/23 06:15:48;;;;;;;6.23;4.40;;;15.50;99.90;;;;;;5070876;28;20745;-72
2022/05/23 06:18:14;;;;;;;5.90;4.00;;;15.50;99.90;;;;;;5069900;28;20473;-72
2022/05/23 06:20:42;;;;;;;4.70;3.70;;;15.60;99.90;;;;;;5070794;28;20520;-72
2022/05/23 06:23:09;;;;;;;5.80;4.63;;;15.70;99.90;;;;;;5070379;28;20481;-72
2022/05/23 06:25:36;;;;;;;6.97;4.47;;;15.70;99.90;;;;;;5070382;28;20486;-72
2022/05/23 06:28:03;;;;;;;5.20;3.83;;;15.70;99.90;;;;;;5069895;28;21013;-72
2022/05/23 06:30:29;;;;;;;6.60;4.60;;;15.70;99.90;;;;;;5074584;28;20871;-72
2022/05/23 06:32:56;;;;;;;6.17;3.70;;;15.60;99.90;;;;;;5076297;28;20485;-71
2022/05/23 06:35:23;;;;;;;5.00;3.70;;;15.60;99.90;;;;;;5074496;28;20463;-72
2022/05/23 06:37:51;;;;;;;4.80;3.80;;;15.70;99.90;;;;;;5074536;28;20469;-72
2022/05/23 06:40:18;;;;;;;8.13;4.00;;;15.70;99.90;;;;;;5073680;28;20458;-72
2022/05/23 06:42:45;;;;;;;4.20;3.77;;;15.70;99.90;;;;;;5074507;28;20608;-71
2022/05/23 06:45:12;;;;;;;5.20;4.17;;;15.80;99.90;;;;;;5074134;28;20944;-71
2022/05/23 06:47:39;;;;;;;5.80;4.07;;;15.70;99.90;;;;;;5074781;28;20895;-72
2022/05/23 06:50:07;;;;;;;6.10;4.50;;;15.70;99.90;;;;;;5073726;28;20840;-72
2022/05/23 06:52:34;;;;;;;7.63;4.00;;;15.70;99.90;;;;;;5074495;28;20847;-72
2022/05/23 06:55:02;;;;;;;5.67;4.10;;;15.70;99.90;;;;;;5074609;28;20500;-71
2022/05/23 06:57:29;;;;;;;5.80;4.20;;;15.70;99.90;;;;;;5074223;28;20461;-72
2022/05/23 06:59:56;;;;;;;5.37;3.70;;;15.70;99.90;;;;;;5073832;28;20852;-72
2022/05/23 07:02:23;;;;;;;4.83;4.10;;;15.70;99.90;;;;;;5074075;28;20482;-72
2022/05/23 07:13:14;;;;;;;4.90;3.80;;;16.00;99.90;;;;;;5055896;28;20571;-72
2022/05/23 07:15:46;;;;;;;4.73;3.57;;;16.10;99.90;;;;;;5073941;28;20458;-72
2022/05/23 07:18:13;;;;;;;4.40;4.10;;;16.20;99.90;;;;;;5072801;28;20545;-72
2022/05/23 07:20:41;;;;;;;4.63;4.20;;;16.20;99.90;;;;;;5073912;28;20465;-72
2022/05/23 07:23:08;;;;;;;4.73;4.10;;;16.20;99.90;;;;;;5073596;28;20481;-72
2022/05/23 07:25:36;;;;;;;6.83;4.17;;;16.30;99.90;;;;;;5073434;28;20450;-71
2022/05/23 07:28:03;;;;;;;5.47;3.77;;;16.40;99.90;;;;;;5072590;28;20458;-71
2022/05/23 07:30:30;;;;;;;4.40;3.73;;;16.40;99.90;;;;;;5073434;28;20466;-72
2022/05/23 07:32:57;;;;;;;6.40;4.90;;;16.50;99.90;;;;;;5073134;28;21010;-72
2022/05/23 07:35:25;;;;;;;5.97;4.47;;;16.70;99.90;;;;;;5073290;28;20890;-72
2022/05/23 07:37:52;;;;;;;4.57;3.67;;;16.80;99.90;;;;;;5073468;28;20462;-72
2022/05/23 07:40:19;;;;;;;4.00;3.60;;;17.00;99.90;;;;;;5072504;28;20466;-72
2022/05/23 07:42:47;;;;;;;3.60;3.30;;;17.20;99.90;;;;;;5072124;28;20978;-73
2022/05/23 07:45:15;;;;;;;3.83;3.50;;;17.30;99.90;;;;;;5072961;28;20539;-72
2022/05/23 07:47:41;;;;;;;3.80;3.43;;;17.40;99.90;;;;;;5073143;28;20489;-72
2022/05/23 07:50:10;;;;;;;3.23;2.77;;;17.30;99.90;;;;;;5072558;28;20462;-72
2022/05/23 07:52:38;;;;;;;4.50;4.10;;;17.30;99.90;;;;;;5073017;28;20483;-72
2022/05/23 08:00:37;;;;;;;3.97;3.43;;;17.40;99.90;;;;;;5072991;28;20952;-72
2022/05/23 08:03:09;;;;;;;4.60;3.60;;;17.50;99.90;;;;;;5072546;28;20994;-72
2022/05/23 08:05:36;;;;;;;3.97;3.53;;;17.70;99.90;;;;;;5072885;28;20976;-72
2022/05/23 08:08:02;;;;;;;3.27;2.97;;;17.80;99.90;;;;;;5072231;28;20556;-72
2022/05/23 08:10:29;;;;;;;3.73;3.30;;;18.00;99.90;;;;;;5072752;28;20466;-72
2022/05/23 08:12:59;;;;;;;3.83;3.37;;;18.10;99.90;;;;;;5072522;28;20493;-72
2022/05/23 08:15:28;;;;;;;3.67;3.37;;;18.20;99.90;;;;;;5072436;28;20938;-72
2022/05/23 08:17:55;;;;;;;4.30;3.30;;;18.30;99.90;;;;;;5072479;28;20455;-72
2022/05/23 08:20:22;;;;;;;3.83;3.20;;;18.40;99.90;;;;;;5072084;28;20465;-72
2022/05/23 08:22:54;;;;;;;3.60;3.30;;;18.60;99.90;;;;;;5072462;28;20485;-72
2022/05/23 08:25:21;;;;;;;3.77;3.47;;;18.60;99.90;;;;;;5072542;28;20886;-72
2022/05/23 08:27:48;;;;;;;3.33;3.10;;;18.60;99.90;;;;;;5073030;28;20482;-73
2022/05/23 08:30:16;;;;;;;4.53;3.43;;;18.60;99.90;;;;;;5071819;28;20801;-72
2022/05/23 08:32:43;;;;;;;4.67;3.10;;;18.50;99.90;;;;;;5072373;28;20483;-72
2022/05/23 08:35:10;;;;;;;3.77;3.30;;;18.50;99.90;;;;;;5071994;28;20486;-73
2022/05/23 08:37:37;;;;;;;3.40;3.10;;;18.40;99.90;;;;;;5072066;28;20945;-72
2022/05/23 08:40:04;;;;;;;3.87;3.20;;;18.50;99.90;;;;;;5071737;28;20465;-72
2022/05/23 08:42:42;;;;;;;4.20;3.07;;;18.60;99.90;;;;;;5072056;28;20493;-72
2022/05/23 08:45:15;;;;;;;3.80;3.13;;;18.70;99.90;;;;;;5072206;28;20459;-73
2022/05/23 08:47:51;;;;;;;3.50;3.20;;;18.70;99.90;;;;;;5071878;28;20998;-72
2022/05/23 08:50:34;;;;;;;4.13;3.37;;;18.80;99.90;;;;;;5071349;28;20466;-73
2022/05/23 08:53:06;;;;;;;6.20;3.50;;;18.90;99.90;;;;;;5071439;28;20482;-72
2022/05/23 08:55:37;;;;;;;3.10;2.80;;;19.00;99.90;;;;;;5071747;28;20469;-73
2022/05/23 08:58:09;;;;;;;4.40;3.73;;;19.10;99.90;;;;;;5071057;28;20982;-73
2022/05/23 09:00:39;;;;;;;3.43;3.13;;;19.00;99.90;;;;;;5071759;28;20470;-72
2022/05/23 09:03:18;;;;;;;3.73;3.33;;;19.00;99.90;;;;;;5071526;28;20470;-72
2022/05/23 09:05:50;;;;;;;4.33;3.50;;;19.00;99.90;;;;;;5071678;28;20876;-72
2022/05/23 09:08:21;;;;;;;3.60;3.20;;;18.80;99.90;;;;;;5070609;28;20497;-72
2022/05/23 09:10:54;;;;;;;3.20;2.97;;;18.70;99.90;;;;;;5071580;28;20843;-71
2022/05/23 09:13:23;;;;;;;6.40;2.93;;;18.60;99.90;;;;;;5071659;28;20535;-72
2022/05/23 09:15:53;;;;;;;3.33;3.03;;;18.50;99.90;;;;;;5071505;28;20477;-71
2022/05/23 09:18:27;;;;;;;4.47;2.90;;;18.40;99.90;;;;;;5070521;28;20477;-72
2022/05/23 09:20:59;;;;;;;3.40;3.10;;;18.40;99.90;;;;;;5071384;28;20459;-72
2022/05/23 09:23:28;;;;;;;7.90;3.50;;;18.40;99.90;;;;;;5071088;28;20506;-71
2022/05/23 09:25:56;;;;;;;4.40;3.30;;;18.50;99.90;;;;;;5070893;28;20462;-71
2022/05/23 09:28:29;;;;;;;6.30;3.50;;;18.60;99.90;;;;;;5070300;28;20833;-71
2022/05/23 09:30:59;;;;;;;4.13;3.73;;;18.70;99.90;;;;;;5071420;28;20462;-71
2022/05/23 09:33:29;;;;;;;4.33;3.43;;;18.80;99.90;;;;;;5071172;28;20899;-71
2022/05/23 09:36:08;;;;;;;3.70;3.40;;;18.90;99.90;;;;;;5071047;28;20466;-71
2022/05/23 09:38:46;;;;;;;4.00;3.63;;;19.00;99.90;;;;;;5070501;28;20463;-72
2022/05/23 09:41:28;;;;;;;4.00;3.17;;;19.10;99.90;;;;;;5070785;28;20458;-72
2022/05/23 09:49:30;;;;;;;3.80;3.20;;;19.40;99.90;;;;;;5070617;28;20491;-72
2022/05/23 09:51:59;;;;;;;5.67;3.40;;;19.60;99.90;;;;;;5070599;28;20526;-71
2022/05/23 09:54:30;;;;;;;4.40;3.00;;;19.90;99.90;;;;;;5070659;28;20462;-71
2022/05/23 09:56:59;;;;;;;7.10;3.20;;;20.00;99.90;;;;;;5070820;28;20463;-71
2022/05/23 09:59:30;;;;;;;4.60;3.50;;;20.00;99.90;;;;;;5070525;28;20482;-72
2022/05/23 10:01:57;;;;;;;3.47;3.17;;;20.00;99.90;;;;;;5070748;28;20493;-72
2022/05/23 10:04:28;;;;;;;4.17;3.60;;;20.00;99.90;;;;;;5069802;28;20455;-72
2022/05/23 10:06:55;;;;;;;4.27;3.27;;;20.00;99.90;;;;;;5070810;28;20969;-72
2022/05/23 10:09:29;;;;;;;3.83;3.47;;;20.10;99.90;;;;;;5070124;28;20467;-72
2022/05/23 10:12:00;;;;;;;3.93;3.47;;;20.00;99.90;;;;;;5070510;28;20488;-72
2022/05/23 10:14:41;;;;;;;4.83;4.27;;;20.10;99.90;;;;;;5070449;28;20938;-72
2022/05/23 10:17:08;;;;;;;3.83;3.43;;;20.10;99.90;;;;;;5070587;28;20843;-71
2022/05/23 10:19:39;;;;;;;5.73;3.67;;;20.20;99.90;;;;;;5069768;28;20462;-72
2022/05/23 10:22:15;;;;;;;3.57;3.23;;;20.10;99.90;;;;;;5070261;28;20490;-72
2022/05/23 10:24:53;;;;;;;3.73;3.43;;;20.20;99.90;;;;;;5070623;28;20557;-73
2022/05/23 10:27:33;;;;;;;3.33;3.00;;;20.20;99.90;;;;;;5070359;28;20475;-72
2022/05/23 10:30:02;;;;;;;7.90;3.73;;;20.20;99.90;;;;;;5069952;28;20482;-73
2022/05/23 10:32:32;;;;;;;3.57;3.20;;;20.20;99.90;;;;;;5070362;28;20486;-73
2022/05/23 10:35:09;;;;;;;4.23;3.77;;;20.20;99.90;;;;;;5070319;28;20458;-72
2022/05/23 10:37:39;;;;;;;3.50;3.20;;;20.30;99.90;;;;;;5070749;28;20984;-72
2022/05/23 10:43:00;;;;;;;4.03;3.10;;;20.20;99.90;;;;;;5070263;28;20458;-73
2022/05/23 10:45:32;;;;;;;4.30;3.90;;;20.10;99.90;;;;;;5070250;28;20884;-72
2022/05/23 10:48:21;;;;;;;4.43;4.03;;;20.10;99.90;;;;;;5069776;28;20536;-73
2022/05/23 10:50:55;;;;;;;4.23;3.83;;;20.10;99.90;;;;;;5067542;28;20494;-73
2022/05/23 10:53:37;;;;;;;3.37;3.10;;;20.00;99.90;;;;;;5070032;28;20482;-72
2022/05/23 10:56:13;;;;;;;3.80;3.40;;;20.00;99.90;;;;;;5070111;28;20861;-72
2022/05/23 10:58:45;;;;;;;4.00;2.90;;;19.90;99.90;;;;;;5069743;28;20838;-73
2022/05/23 11:01:30;;;;;;;4.40;3.53;;;19.90;99.90;;;;;;5070552;28;20516;-72
2022/05/23 11:04:07;;;;;;;4.40;3.50;;;19.70;99.90;;;;;;5070176;28;20459;-73
2022/05/23 11:06:45;;;;;;;4.30;3.63;;;19.70;99.90;;;;;;5070215;28;20569;-73
2022/05/23 11:09:27;;;;;;;6.30;3.77;;;19.70;99.90;;;;;;5069340;28;20458;-72
2022/05/23 11:12:06;;;;;;;4.10;3.70;;;19.60;99.90;;;;;;5108499;22;20477;-95
2022/05/23 11:17:26;;;;;;;3.80;3.37;;;19.40;99.90;;;;;;5012231;28;20542;-72
2022/05/23 11:20:06;;;;;;;4.10;3.80;;;19.20;99.90;;;;;;5012843;28;20457;-73
2022/05/23 11:22:37;;;;;;;5.30;3.83;;;19.00;99.90;;;;;;5013954;28;20484;-73
2022/05/23 11:25:16;;;;;;;9.10;4.90;;;18.80;99.90;;;;;;5014100;28;20471;-73
2022/05/23 11:36:15;;;;;;;7.70;4.60;;;18.20;99.90;;;;;;5003037;28;21015;-72
2022/05/23 11:38:47;;;;;;;8.27;4.40;;;18.10;99.90;;;;;;5013274;28;20449;-73
2022/05/23 11:41:32;;;;;;;8.63;4.50;;;17.90;99.90;;;;;;5013491;28;20468;-73
2022/05/23 11:43:59;;;;;;;5.83;4.03;;;17.80;99.90;;;;;;5013538;28;20556;-73
2022/05/23 11:46:28;;;;;;;5.70;3.40;;;17.70;99.90;;;;;;5013655;28;20453;-73
2022/05/23 11:49:01;;;;;;;5.50;3.90;;;17.60;99.90;;;;;;5012839;28;21046;-73
2022/05/23 11:51:37;;;;;;;3.40;2.77;;;17.50;99.90;;;;;;5013308;28;20843;-72
2022/05/23 11:54:34;;;;;;;6.30;2.80;;;17.40;99.90;;;;;;5013205;28;20956;-72
2022/05/23 11:57:31;;;;;;;4.47;2.70;;;17.30;99.90;;;;;;5013263;28;20457;-73
2022/05/23 12:00:08;;;;;;;4.63;2.87;;;17.20;99.90;;;;;;5012849;28;20472;-72
2022/05/23 12:02:39;;;;;;;3.83;2.53;;;17.10;99.90;;;;;;5013391;28;20851;-72
2022/05/23 12:05:30;;;;;;;3.43;2.70;;;17.00;99.90;;;;;;5013512;28;20457;-73
2022/05/23 12:08:06;;;;;;;5.23;4.70;;;16.90;99.90;;;;;;5013060;28;20512;-72
2022/05/23 12:10:55;;;;;;;4.33;3.00;;;16.90;99.90;;;;;;5013274;28;20467;-73
2022/05/23 12:13:49;;;;;;;6.80;2.90;;;16.90;99.90;;;;;;5012879;28;20485;-73
2022/05/23 12:16:42;;;;;;;4.60;2.70;;;16.80;99.90;;;;;;5024771;28;20574;-72
2022/05/23 12:19:47;;;;;;;5.63;2.90;;;16.80;99.90;;;;;;4996793;28;20464;-72
2022/05/23 12:22:21;;;;;;;3.93;2.43;;;16.80;99.90;;;;;;5032338;28;20511;-73
2022/05/23 12:25:19;;;;;;;4.50;3.30;;;16.80;99.90;;;;;;5032672;28;20464;-73
2022/05/23 12:28:14;;;;;;;6.30;2.80;;;16.80;99.90;;;;;;4988091;28;21006;-73
2022/05/23 12:30:43;;;;;;;5.27;2.60;;;16.90;99.90;;;;;;5032621;28;20460;-73
2022/05/23 12:33:21;;;;;;;6.10;3.13;;;17.00;99.90;;;;;;5032308;28;20480;-73
2022/05/23 12:35:54;;;;;;;3.33;2.70;;;17.00;99.90;;;;;;5032731;28;20460;-73
2022/05/23 12:38:47;;;;;;;7.73;2.90;;;17.10;99.90;;;;;;5031917;28;20483;-73
2022/05/23 12:41:25;;;;;;;6.00;2.80;;;17.20;99.90;;;;;;5032510;28;20460;-72
2022/05/23 12:44:12;;;;;;;6.70;3.10;;;17.30;99.90;;;;;;5032373;28;20456;-73
2022/05/23 12:46:49;;;;;;;4.30;2.90;;;17.50;99.90;;;;;;5032148;28;20526;-73
2022/05/23 12:49:27;;;;;;;5.40;3.03;;;17.70;99.90;;;;;;5031324;28;21011;-73
2022/05/23 12:52:08;;;;;;;8.27;3.70;;;17.90;99.90;;;;;;5032058;28;20928;-72
2022/05/23 12:54:48;;;;;;;6.47;2.97;;;18.00;99.90;;;;;;5032149;28;20718;-73
2022/05/23 12:57:31;;;;;;;3.77;3.17;;;18.10;99.90;;;;;;5031851;28;20474;-72
2022/05/23 13:00:02;;;;;;;4.27;2.70;;;18.20;99.90;;;;;;5031192;28;20882;-73
2022/05/23 13:02:35;;;;;;;4.27;2.50;;;18.30;99.90;;;;;;5031767;28;21094;-73
2022/05/23 13:05:07;;;;;;;4.23;2.80;;;18.30;99.90;;;;;;5031612;28;20974;-73
2022/05/23 13:07:44;;;;;;;4.80;3.57;;;18.40;99.90;;;;;;5031840;28;20491;-73
2022/05/23 13:10:13;;;;;;;5.20;2.70;;;18.50;99.90;;;;;;5031184;28;20951;-73
2022/05/23 13:12:45;;;;;;;7.00;3.30;;;18.50;99.90;;;;;;5031847;28;20824;-73
2022/05/23 13:15:23;;;;;;;3.60;2.50;;;18.60;99.90;;;;;;5031328;28;20479;-73
2022/05/23 13:17:50;;;;;;;4.03;2.50;;;18.70;99.90;;;;;;5031423;28;20494;-73
2022/05/23 13:23:14;;;;;;;4.00;2.83;;;19.20;99.90;;;;;;5031841;28;20943;-73
2022/05/23 13:25:41;;;;;;;3.77;3.10;;;19.50;99.90;;;;;;5031553;28;21157;-73
2022/05/23 13:28:10;;;;;;;7.33;2.90;;;19.70;99.90;;;;;;5030723;28;20498;-72
2022/05/23 13:30:42;;;;;;;5.20;3.00;;;19.90;99.90;;;;;;5031479;28;20487;-72
2022/05/23 13:33:14;;;;;;;4.40;2.77;;;20.10;99.90;;;;;;5031014;28;20476;-74
2022/05/23 13:35:42;;;;;;;3.00;2.40;;;20.20;99.90;;;;;;5031463;28;20461;-72
2022/05/23 13:38:22;;;;;;;3.60;2.80;;;20.40;99.90;;;;;;5030554;28;20487;-72
2022/05/23 13:40:51;;;;;;;3.93;2.63;;;20.60;99.90;;;;;;5030749;28;20463;-72
2022/05/23 13:43:21;;;;;;;7.67;2.47;;;20.80;99.90;;;;;;5030868;28;20484;-72
2022/05/23 13:45:58;;;;;;;7.77;2.60;;;21.00;99.90;;;;;;5031468;28;20558;-72
2022/05/23 13:48:31;;;;;;;5.30;2.60;;;21.20;99.90;;;;;;5030693;28;20484;-72
2022/05/23 13:51:02;;;;;;;5.53;2.63;;;21.40;99.90;;;;;;5030816;28;20476;-72
2022/05/23 13:53:33;;;;;;;7.80;3.53;;;21.70;99.90;;;;;;5030964;28;20475;-72
2022/05/23 13:56:02;;;;;;;4.87;2.70;;;21.80;99.90;;;;;;5031014;28;21105;-72
2022/05/23 13:58:32;;;;;;;3.70;3.00;;;22.00;99.90;;;;;;5030479;28;20489;-72
2022/05/23 14:01:05;;;;;;;3.00;2.70;;;22.30;99.90;;;;;;5030694;28;20507;-71
2022/05/23 14:03:36;;;;;;;3.43;2.50;;;22.20;99.90;;;;;;5030777;28;20490;-72
2022/05/23 14:06:06;;;;;;;3.90;2.83;;;22.20;99.90;;;;;;5030765;28;20464;-72